createdAt,value
2022-10-13T00:01:40.932Z,7.30
2022-10-13T00:04:09.790Z,7.29
2022-10-13T00:06:38.263Z,7.27
2022-10-13T00:09:06.488Z,7.21
2022-10-13T00:11:35.063Z,7.14
2022-10-13T00:14:05.993Z,7.10
2022-10-13T00:16:35.762Z,7.04
2022-10-13T00:19:06.229Z,7.07
2022-10-13T00:21:34.638Z,7.02
2022-10-13T00:24:03.848Z,7.06
2022-10-13T00:26:32.764Z,7.00
2022-10-13T00:29:00.979Z,6.95
2022-10-13T00:31:30.938Z,6.94
2022-10-13T00:34:02.179Z,6.92
2022-10-13T00:36:30.968Z,6.76
2022-10-13T00:38:59.769Z,6.74
2022-10-13T00:41:29.611Z,6.82
2022-10-13T00:44:00.334Z,6.85
2022-10-13T00:46:30.289Z,6.84
2022-10-13T00:49:00.507Z,6.86
2022-10-13T00:51:33.107Z,6.83
2022-10-13T00:54:01.849Z,6.69
2022-10-13T00:56:32.237Z,6.71
2022-10-13T00:59:02.431Z,6.75
2022-10-13T01:01:30.810Z,6.54
2022-10-13T01:03:59.098Z,6.64
2022-10-13T01:06:27.222Z,6.58
2022-10-13T01:08:56.826Z,6.57
2022-10-13T01:11:41.803Z,6.68
2022-10-13T01:14:16.023Z,6.66
2022-10-13T01:16:51.254Z,6.68
2022-10-13T01:19:28.893Z,6.76
2022-10-13T01:22:04.275Z,6.72
2022-10-13T01:24:45.562Z,6.78
2022-10-13T01:27:28.950Z,6.79
2022-10-13T01:30:09.992Z,6.82
2022-10-13T01:32:45.366Z,6.81
2022-10-13T01:35:16.485Z,6.75
2022-10-13T01:37:48.227Z,6.68
2022-10-13T01:40:21.375Z,6.68
2022-10-13T01:42:53.754Z,6.65
2022-10-13T01:45:28.764Z,6.71
2022-10-13T01:47:59.631Z,6.71
2022-10-13T01:50:28.385Z,6.69
2022-10-13T01:52:57.323Z,6.74
2022-10-13T01:55:25.554Z,6.69
2022-10-13T01:57:53.683Z,6.65
2022-10-13T02:00:23.102Z,6.67
2022-10-13T02:03:00.610Z,6.70
2022-10-13T02:05:35.864Z,6.71
2022-10-13T02:08:05.552Z,6.70
2022-10-13T02:10:36.946Z,6.52
2022-10-13T02:13:06.709Z,6.55
2022-10-13T02:15:39.464Z,6.59
2022-10-13T02:18:10.304Z,6.65
2022-10-13T02:20:39.678Z,6.69
2022-10-13T02:23:09.971Z,6.62
2022-10-13T02:25:38.423Z,6.65
2022-10-13T02:28:07.101Z,6.75
2022-10-13T02:30:35.576Z,6.72
2022-10-13T02:33:04.679Z,6.70
2022-10-13T02:35:34.408Z,6.66
2022-10-13T02:38:03.023Z,6.74
2022-10-13T02:40:31.358Z,6.77
2022-10-13T02:42:59.986Z,6.72
2022-10-13T02:45:28.217Z,6.72
2022-10-13T02:47:58.006Z,6.59
2022-10-13T02:50:26.376Z,6.54
2022-10-13T02:52:56.128Z,6.49
2022-10-13T02:55:24.309Z,6.46
2022-10-13T02:57:52.388Z,6.40
2022-10-13T03:00:21.486Z,6.43
2022-10-13T03:02:49.900Z,6.43
2022-10-13T03:05:18.079Z,6.36
2022-10-13T03:07:46.171Z,6.29
2022-10-13T03:10:16.063Z,6.45
2022-10-13T03:12:44.277Z,6.35
2022-10-13T03:15:12.287Z,6.31
2022-10-13T03:17:41.234Z,6.39
2022-10-13T03:20:10.109Z,6.39
2022-10-13T03:22:38.371Z,6.23
2022-10-13T03:25:07.242Z,6.20
2022-10-13T03:27:37.397Z,6.31
2022-10-13T03:30:05.990Z,6.26
2022-10-13T03:32:34.424Z,6.16
2022-10-13T03:35:03.073Z,6.22
2022-10-13T03:37:32.310Z,6.22
2022-10-13T03:40:01.043Z,6.20
2022-10-13T03:42:29.203Z,6.25
2022-10-13T03:44:58.844Z,6.30
2022-10-13T03:47:26.881Z,6.34
2022-10-13T03:49:55.550Z,6.30
2022-10-13T03:52:24.715Z,6.24
2022-10-13T03:54:52.984Z,6.14
2022-10-13T03:57:21.384Z,6.26
2022-10-13T03:59:50.354Z,6.33
2022-10-13T04:02:20.387Z,6.28
2022-10-13T04:04:48.779Z,6.31
2022-10-13T04:07:16.744Z,6.30
2022-10-13T04:09:44.891Z,6.25
2022-10-13T04:12:17.082Z,6.29
2022-10-13T04:14:48.169Z,6.31
2022-10-13T04:17:16.518Z,6.32
2022-10-13T04:19:46.284Z,6.35
2022-10-13T04:22:14.802Z,6.39
2022-10-13T04:24:43.519Z,6.42
2022-10-13T04:27:11.816Z,6.39
2022-10-13T04:29:39.821Z,6.44
2022-10-13T04:32:08.006Z,6.46
2022-10-13T04:34:36.386Z,6.41
2022-10-13T04:37:06.537Z,6.44
2022-10-13T04:39:36.590Z,6.45
2022-10-13T04:42:05.261Z,6.36
2022-10-13T04:44:33.375Z,6.46
2022-10-13T04:47:02.081Z,6.47
2022-10-13T04:49:30.487Z,6.52
2022-10-13T04:51:58.910Z,6.56
2022-10-13T04:54:28.641Z,6.63
2022-10-13T04:56:57.179Z,6.59
2022-10-13T04:59:26.575Z,6.64
2022-10-13T05:01:56.229Z,6.63
2022-10-13T05:04:25.122Z,6.74
2022-10-13T05:07:16.959Z,6.81
2022-10-13T05:09:48.031Z,6.82
2022-10-13T05:12:16.923Z,7.00
2022-10-13T05:14:45.389Z,7.13
2022-10-13T05:17:14.202Z,7.23
2022-10-13T05:19:42.675Z,7.31
2022-10-13T05:22:11.005Z,7.33
2022-10-13T05:24:39.339Z,7.34
2022-10-13T05:27:10.900Z,7.37
2022-10-13T05:29:39.577Z,7.41
2022-10-13T05:32:08.488Z,7.51
2022-10-13T05:34:36.655Z,7.56
2022-10-13T05:37:05.145Z,7.60
2022-10-13T05:39:33.401Z,7.70
2022-10-13T05:42:02.118Z,7.72
2022-10-13T05:44:31.629Z,7.88
2022-10-13T05:47:03.682Z,7.76
2022-10-13T05:49:36.621Z,7.76
2022-10-13T05:52:07.948Z,7.71
2022-10-13T05:54:37.955Z,7.77
2022-10-13T05:57:08.204Z,7.90
2022-10-13T05:59:39.277Z,8.17
2022-10-13T06:02:09.736Z,8.24
2022-10-13T06:04:40.188Z,8.25
2022-10-13T06:07:10.224Z,8.19
2022-10-13T06:09:39.249Z,8.11
2022-10-13T06:12:08.284Z,7.80
2022-10-13T06:14:41.653Z,7.84
2022-10-13T06:17:09.966Z,7.84
2022-10-13T06:19:38.235Z,7.70
2022-10-13T06:22:06.662Z,7.95
2022-10-13T06:24:34.994Z,7.84
2022-10-13T06:27:04.969Z,7.95
2022-10-13T06:29:34.346Z,8.02
2022-10-13T06:32:05.796Z,7.99
2022-10-13T06:34:35.346Z,8.00
2022-10-13T06:37:04.422Z,7.87
2022-10-13T06:39:33.496Z,8.03
2022-10-13T06:42:03.892Z,7.99
2022-10-13T06:44:33.637Z,8.02
2022-10-13T06:47:04.666Z,8.16
2022-10-13T06:49:36.561Z,8.21
2022-10-13T06:52:13.048Z,8.29
2022-10-13T06:54:42.129Z,8.24
2022-10-13T06:57:17.410Z,8.35
2022-10-13T06:59:46.823Z,8.50
2022-10-13T07:02:15.186Z,8.53
2022-10-13T07:04:45.668Z,8.52
2022-10-13T07:07:17.437Z,8.54
2022-10-13T07:09:46.763Z,8.63
2022-10-13T07:12:15.494Z,8.48
2022-10-13T07:14:44.116Z,8.32
2022-10-13T07:17:12.839Z,8.14
2022-10-13T07:19:41.592Z,8.30
2022-10-13T07:22:23.466Z,8.49
2022-10-13T07:25:03.502Z,9.07
2022-10-13T07:27:44.355Z,9.77
2022-10-13T07:30:17.397Z,10.36
2022-10-13T07:32:50.828Z,10.77
2022-10-13T07:35:21.028Z,10.83
2022-10-13T07:37:55.069Z,10.49
2022-10-13T07:40:38.704Z,10.47
2022-10-13T07:52:46.578Z,10.05
2022-10-13T07:57:52.803Z,9.85
2022-10-13T08:00:24.807Z,9.60
2022-10-13T08:02:54.872Z,9.74
2022-10-13T08:05:23.114Z,9.96
2022-10-13T08:07:56.022Z,10.34
2022-10-13T08:10:29.816Z,10.65
2022-10-13T08:12:58.551Z,11.02
2022-10-13T08:15:27.330Z,11.05
2022-10-13T08:17:56.802Z,10.95
2022-10-13T08:20:28.889Z,10.47
2022-10-13T08:23:07.292Z,10.00
2022-10-13T08:25:38.631Z,9.89
2022-10-13T08:28:08.054Z,9.80
2022-10-13T08:30:36.557Z,9.68
2022-10-13T08:33:06.980Z,9.45
2022-10-13T08:35:35.630Z,9.23
2022-10-13T08:38:04.361Z,9.11
2022-10-13T08:40:35.697Z,9.13
2022-10-13T08:43:08.639Z,8.90
2022-10-13T08:45:42.370Z,8.98
2022-10-13T08:48:14.475Z,9.04
2022-10-13T08:50:44.321Z,8.95
2022-10-13T08:53:27.105Z,8.94
2022-10-13T08:56:02.891Z,8.93
2022-10-13T08:58:35.597Z,8.78
2022-10-13T09:01:13.481Z,9.04
2022-10-13T09:03:55.136Z,9.05
2022-10-13T09:06:28.943Z,9.26
2022-10-13T09:08:58.844Z,9.18
2022-10-13T09:11:34.335Z,9.09
2022-10-13T09:14:06.003Z,8.86
2022-10-13T09:16:52.417Z,9.04
2022-10-13T09:19:25.559Z,9.35
2022-10-13T09:21:54.895Z,9.29
2022-10-13T09:24:23.832Z,9.08
2022-10-13T09:27:05.156Z,9.31
2022-10-13T09:29:38.799Z,9.19
2022-10-13T09:32:17.078Z,9.21
2022-10-13T09:34:49.196Z,9.13
2022-10-13T09:37:20.524Z,9.38
2022-10-13T09:40:11.742Z,9.61
2022-10-13T09:42:59.141Z,9.67
2022-10-13T09:45:37.411Z,10.08
2022-10-13T09:48:08.012Z,10.17
2022-10-13T09:50:39.842Z,10.27
2022-10-13T09:53:17.863Z,10.22
2022-10-13T09:55:51.210Z,10.22
2022-10-13T09:58:23.930Z,10.22
2022-10-13T10:00:57.746Z,10.09
2022-10-13T10:03:28.204Z,10.18
2022-10-13T10:05:58.980Z,10.12
2022-10-13T10:08:34.085Z,10.23
2022-10-13T10:11:16.093Z,10.42
2022-10-13T10:13:46.405Z,10.64
2022-10-13T10:16:21.571Z,10.59
2022-10-13T10:18:56.307Z,10.46
2022-10-13T10:21:32.751Z,10.22
2022-10-13T10:24:08.358Z,10.18
2022-10-13T10:29:30.039Z,10.65
2022-10-13T10:32:16.304Z,11.07
2022-10-13T10:34:49.993Z,11.23
2022-10-13T10:37:21.409Z,11.62
2022-10-13T10:40:00.259Z,12.08
2022-10-13T10:42:48.459Z,12.60
2022-10-13T10:45:23.630Z,13.42
2022-10-13T10:47:54.617Z,14.86
2022-10-13T10:50:23.898Z,15.55
2022-10-13T10:52:56.714Z,16.43
2022-10-13T10:55:28.246Z,17.07
2022-10-13T10:58:02.159Z,16.71
2022-10-13T11:00:36.018Z,15.45
2022-10-13T11:03:07.537Z,14.29
2022-10-13T11:05:54.610Z,14.64
2022-10-13T11:08:40.082Z,15.64
2022-10-13T11:11:28.640Z,16.77
2022-10-13T11:13:59.988Z,17.43
2022-10-13T11:16:34.809Z,17.24
2022-10-13T11:19:07.515Z,17.18
2022-10-13T11:21:54.622Z,16.73
2022-10-13T11:24:46.488Z,17.72
2022-10-13T11:27:21.725Z,18.25
2022-10-13T11:29:55.003Z,17.10
2022-10-13T11:32:55.443Z,16.09
2022-10-13T11:35:30.024Z,16.19
2022-10-13T11:38:07.825Z,16.60
2022-10-13T11:40:40.458Z,16.74
2022-10-13T11:43:18.063Z,16.23
2022-10-13T11:45:54.556Z,16.64
2022-10-13T11:48:43.787Z,16.57
2022-10-13T13:04:39.869Z,10.73
2022-10-13T13:10:27.583Z,10.14
2022-10-13T13:15:47.933Z,9.95
2022-10-13T13:18:40.091Z,9.83
2022-10-13T13:24:21.891Z,9.67
2022-10-13T13:26:58.725Z,9.74
2022-10-13T13:29:27.888Z,9.62
2022-10-13T13:32:19.977Z,9.60
2022-10-13T13:34:49.341Z,9.50
2022-10-13T13:37:34.292Z,9.38
2022-10-13T13:40:04.273Z,9.39
2022-10-13T13:45:22.447Z,9.53
2022-10-13T13:47:51.172Z,9.43
2022-10-13T13:50:21.881Z,9.48
2022-10-13T13:52:51.882Z,9.55
2022-10-13T13:55:20.702Z,9.59
2022-10-13T13:57:49.805Z,9.58
2022-10-13T14:00:19.083Z,9.65
2022-10-13T14:02:47.571Z,10.56
2022-10-13T14:05:16.356Z,11.33
2022-10-13T14:07:44.874Z,11.83
2022-10-13T14:10:25.404Z,11.71
2022-10-13T14:12:54.530Z,11.21
2022-10-13T14:15:27.252Z,10.80
2022-10-13T14:20:44.307Z,9.63
2022-10-13T14:23:12.960Z,9.38
2022-10-13T14:25:43.247Z,9.05
2022-10-13T14:28:17.237Z,8.82
2022-10-13T14:30:46.863Z,8.54
2022-10-13T14:33:19.793Z,8.31
2022-10-13T14:35:48.997Z,8.27
2022-10-13T14:38:17.582Z,8.15
2022-10-13T14:40:47.295Z,8.04
2022-10-13T14:43:15.594Z,8.01
2022-10-13T14:45:43.717Z,7.92
2022-10-13T14:48:12.627Z,7.94
2022-10-13T14:50:41.620Z,7.93
2022-10-13T14:53:15.421Z,7.78
2022-10-13T14:55:45.117Z,7.76
2022-10-13T14:58:15.522Z,7.72
2022-10-13T15:00:44.417Z,7.60
2022-10-13T15:03:13.101Z,7.65
2022-10-13T15:05:42.531Z,7.67
2022-10-13T15:14:04.532Z,7.58
2022-10-13T16:12:49.859Z,7.15
2022-10-13T16:15:45.913Z,7.12
2022-10-13T16:18:38.593Z,7.13
2022-10-13T17:18:14.293Z,7.45
2022-10-13T17:20:51.739Z,7.29
2022-10-13T17:23:20.449Z,7.37
2022-10-13T17:25:48.688Z,7.35
2022-10-13T17:28:19.391Z,7.26
2022-10-13T17:30:47.781Z,7.35
2022-10-13T17:33:16.373Z,7.37
2022-10-13T17:35:45.087Z,7.46
2022-10-13T17:38:14.204Z,7.44
2022-10-13T17:40:45.991Z,7.37
2022-10-13T17:43:14.506Z,7.30
2022-10-13T17:45:44.015Z,7.26
2022-10-13T17:48:15.974Z,7.24
2022-10-13T17:50:46.778Z,7.26
2022-10-13T17:53:16.352Z,7.23
2022-10-13T17:55:44.777Z,7.27
2022-10-13T17:58:12.895Z,7.35
2022-10-13T18:01:08.151Z,7.22
2022-10-13T18:03:31.761Z,7.27
2022-10-13T18:06:00.285Z,7.40
2022-10-13T18:08:30.107Z,7.40
2022-10-13T18:11:07.470Z,7.41
2022-10-13T18:13:37.055Z,7.36
2022-10-13T18:16:06.855Z,7.34
2022-10-13T18:18:37.675Z,7.29
2022-10-13T18:26:50.563Z,7.20
2022-10-13T18:29:23.047Z,7.14
2022-10-13T18:31:51.086Z,7.09
2022-10-13T18:34:20.681Z,6.87
2022-10-13T18:36:50.846Z,6.93
2022-10-13T18:39:19.942Z,6.74
2022-10-13T18:41:49.469Z,6.77
2022-10-13T18:44:17.574Z,6.69
2022-10-13T18:46:48.543Z,6.72
2022-10-13T18:49:18.353Z,6.66
2022-10-13T18:51:50.589Z,6.60
2022-10-13T18:54:18.880Z,6.71
2022-10-13T18:56:46.863Z,6.75
2022-10-13T18:59:14.764Z,6.71
2022-10-13T19:01:43.000Z,6.80
2022-10-13T19:04:12.929Z,6.85
2022-10-13T19:06:41.134Z,6.91
2022-10-13T19:09:12.494Z,6.93
2022-10-13T19:11:40.916Z,6.91
2022-10-13T19:14:12.179Z,6.87
2022-10-13T19:16:41.918Z,6.84
2022-10-13T19:19:10.374Z,6.87
2022-10-13T19:21:38.813Z,6.87
2022-10-13T19:24:07.412Z,6.84
2022-10-13T19:26:37.410Z,6.81
2022-10-13T19:29:09.449Z,6.87
2022-10-13T19:31:38.163Z,6.85
2022-10-13T19:34:06.232Z,6.81
2022-10-13T19:36:44.614Z,6.90
2022-10-13T19:39:15.039Z,6.86
2022-10-13T19:41:48.462Z,6.74
2022-10-13T19:44:17.073Z,6.78
2022-10-13T19:46:45.850Z,6.83
2022-10-13T19:49:15.447Z,6.92
2022-10-13T19:51:43.789Z,6.94
2022-10-13T19:54:13.309Z,6.98
2022-10-13T19:56:43.895Z,7.03
2022-10-13T19:59:16.500Z,7.06
2022-10-13T20:01:44.597Z,7.02
2022-10-13T20:04:13.749Z,7.13
2022-10-13T20:06:41.775Z,7.27
2022-10-13T20:09:09.762Z,7.34
2022-10-13T20:11:37.723Z,7.28
2022-10-13T20:14:05.761Z,7.28
2022-10-13T20:16:36.789Z,7.31
2022-10-13T20:19:04.900Z,7.36
2022-10-13T20:21:33.232Z,7.36
2022-10-13T20:24:01.288Z,7.32
2022-10-13T20:26:29.384Z,7.14
2022-10-13T20:28:58.456Z,7.10
2022-10-13T20:31:26.919Z,7.03
2022-10-13T20:33:57.561Z,7.11
2022-10-13T20:36:26.221Z,7.15
2022-10-13T20:38:54.242Z,7.27
2022-10-13T20:41:23.282Z,7.37
2022-10-13T20:43:51.745Z,7.42
2022-10-13T20:46:20.686Z,7.43
2022-10-13T20:51:39.079Z,7.43
2022-10-13T20:54:07.917Z,7.34
2022-10-13T20:56:35.914Z,7.17
2022-10-13T20:59:04.952Z,7.00
2022-10-13T21:01:34.114Z,6.95
2022-10-13T21:04:02.111Z,6.91
2022-10-13T21:06:30.450Z,6.92
2022-10-13T21:09:00.151Z,6.89
2022-10-13T21:11:28.371Z,6.81
2022-10-13T21:13:56.359Z,6.76
2022-10-13T21:16:27.355Z,6.52
2022-10-13T21:18:55.807Z,6.51
2022-10-13T21:21:24.609Z,6.64
2022-10-13T21:23:53.360Z,6.61
2022-10-13T21:29:13.690Z,6.60
2022-10-13T21:34:30.240Z,6.45
2022-10-13T21:36:58.352Z,6.36
2022-10-13T21:39:28.518Z,6.23
2022-10-13T21:41:56.468Z,6.25
2022-10-13T21:44:27.667Z,6.08
2022-10-13T21:46:55.668Z,6.04
2022-10-13T21:49:23.638Z,5.94
2022-10-13T21:51:51.675Z,5.85
2022-10-13T21:54:19.744Z,5.75
2022-10-13T21:56:47.810Z,5.67
2022-10-13T21:59:16.007Z,5.50
2022-10-13T22:01:45.502Z,5.46
2022-10-13T22:04:14.441Z,5.39
2022-10-13T22:06:42.828Z,5.35
2022-10-13T22:09:11.254Z,5.27
2022-10-13T22:11:40.258Z,5.19
2022-10-13T22:14:09.265Z,5.08
2022-10-13T22:16:38.972Z,5.09
2022-10-13T22:19:08.448Z,5.08
2022-10-13T22:21:37.483Z,5.12
2022-10-13T22:24:06.684Z,5.16
2022-10-13T22:26:35.501Z,5.18
2022-10-13T22:29:04.427Z,5.12
2022-10-13T22:31:33.301Z,5.09
2022-10-13T22:34:01.989Z,5.12
2022-10-13T22:36:32.086Z,5.13
2022-10-13T22:39:01.516Z,5.17
2022-10-13T22:41:29.766Z,5.22
2022-10-13T22:43:58.830Z,5.27
2022-10-13T22:46:27.988Z,5.28
2022-10-13T22:48:56.405Z,5.26
2022-10-13T22:51:25.719Z,5.21
2022-10-13T22:53:55.342Z,5.17
2022-10-13T22:56:24.890Z,5.23
2022-10-13T22:58:53.067Z,5.27
2022-10-13T23:01:21.829Z,5.28
2022-10-13T23:03:50.309Z,5.32
2022-10-13T23:06:19.590Z,5.27
2022-10-13T23:08:47.666Z,5.13
2022-10-13T23:11:18.441Z,5.18
2022-10-13T23:13:46.981Z,5.19
2022-10-13T23:16:15.907Z,5.24
2022-10-13T23:18:44.316Z,5.27
2022-10-13T23:21:13.624Z,5.28
2022-10-13T23:23:41.691Z,5.32
2022-10-13T23:26:11.009Z,5.35
2022-10-13T23:28:40.573Z,5.41
2022-10-13T23:31:10.518Z,5.41
2022-10-13T23:33:38.520Z,5.38
2022-10-13T23:36:07.240Z,5.31
2022-10-13T23:38:35.749Z,5.30
2022-10-13T23:41:04.484Z,5.27
2022-10-13T23:43:32.585Z,5.24
2022-10-13T23:46:02.083Z,5.25
2022-10-13T23:48:30.156Z,5.25
2022-10-13T23:50:58.387Z,5.32
2022-10-13T23:53:26.327Z,5.28
2022-10-13T23:55:54.410Z,5.35
2022-10-13T23:58:22.457Z,5.39
